Angier, North Carolina
Current Conditions -  °F | °C
As of 3:55 PM on Saturday 20 Dec 2014 (Local Time) from KHRJ Reporting Station
Overcast Overcast  
Wind Chill: 41°   Ceiling: 1000
Heat Index: 41°   Visibility: 10mi
Dew Point: 35°   Wind: 3mph
Humidity: 80%   Direction: 70°ENE
Pressure: 30.26"   Gusts: NA
Location:  35.51°N, 78.74°W
Report Text: KHRJ 202055Z AUTO 07003KT 10SM BKN010 OVC042 05/02 A3026 RMK AO2 T00480016
Loading
Personal Weather Stations






























Interactive Weather Map New forecast layout! Learn more

10-Day Weather Forecast

Advertisements
Track Severe Weather on mobile